createdAt,value
2023-08-31T00:00:56.801Z,98041.00
2023-08-31T00:03:23.439Z,98042.00
2023-08-31T00:05:52.521Z,98044.80
2023-08-31T00:08:19.216Z,98045.40
2023-08-31T00:10:46.306Z,98049.00
2023-08-31T00:13:13.416Z,98045.60
2023-08-31T00:15:42.153Z,98055.20
2023-08-31T00:18:09.032Z,98054.00
2023-08-31T00:20:36.073Z,98052.80
2023-08-31T00:23:02.768Z,98057.40
2023-08-31T00:25:29.819Z,98057.80
2023-08-31T00:27:58.406Z,98055.00
2023-08-31T00:30:30.964Z,98055.60
2023-08-31T00:35:27.228Z,98048.00
2023-08-31T00:37:59.343Z,98047.00
2023-08-31T00:40:26.896Z,98045.40
2023-08-31T00:42:53.474Z,98048.00
2023-08-31T00:45:20.414Z,98045.00
2023-08-31T00:47:48.744Z,98048.60
2023-08-31T00:50:15.278Z,98045.40
2023-08-31T00:52:45.272Z,98051.40
2023-08-31T00:55:12.088Z,98047.20
2023-08-31T00:57:38.503Z,98043.20
2023-08-31T01:00:09.195Z,98043.40
2023-08-31T01:02:56.223Z,98044.40
2023-08-31T01:05:48.413Z,98047.20
2023-08-31T01:08:40.465Z,98042.40
2023-08-31T01:11:35.543Z,98041.40
2023-08-31T01:14:20.693Z,98046.60
2023-08-31T01:16:51.155Z,98047.00
2023-08-31T01:19:49.693Z,98048.00
2023-08-31T01:22:41.546Z,98053.20
2023-08-31T01:25:10.336Z,98056.60
2023-08-31T01:27:38.855Z,98053.00
2023-08-31T01:30:06.924Z,98052.00
2023-08-31T01:32:34.068Z,98056.00
2023-08-31T01:35:02.469Z,98057.40
2023-08-31T01:37:41.553Z,98059.20
2023-08-31T01:40:15.868Z,98062.60
2023-08-31T01:42:45.008Z,98061.20
2023-08-31T01:45:22.013Z,98063.40
2023-08-31T01:47:49.938Z,98066.20
2023-08-31T01:50:16.410Z,98064.60
2023-08-31T01:52:42.830Z,98061.80
2023-08-31T01:55:10.027Z,98067.20
2023-08-31T01:57:36.534Z,98064.40
2023-08-31T02:00:05.319Z,98066.20
2023-08-31T02:02:32.243Z,98066.80
2023-08-31T02:05:01.738Z,98066.80
2023-08-31T02:07:29.241Z,98066.00
2023-08-31T02:09:55.753Z,98069.00
2023-08-31T02:12:22.479Z,98063.00
2023-08-31T02:14:49.203Z,98068.00
2023-08-31T02:17:15.590Z,98064.20
2023-08-31T02:19:42.076Z,98065.80
2023-08-31T02:22:08.626Z,98069.40
2023-08-31T02:24:35.070Z,98071.40
2023-08-31T02:27:01.551Z,98070.20
2023-08-31T02:29:28.044Z,98072.40
2023-08-31T02:31:54.549Z,98072.20
2023-08-31T02:34:21.226Z,98071.20
2023-08-31T02:36:47.672Z,98070.00
2023-08-31T02:39:14.408Z,98068.20
2023-08-31T02:41:41.046Z,98069.40
2023-08-31T02:44:07.571Z,98064.20
2023-08-31T02:46:34.080Z,98065.20
2023-08-31T02:51:26.693Z,98067.00
2023-08-31T02:53:54.522Z,98065.20
2023-08-31T02:56:20.982Z,98071.20
2023-08-31T02:58:47.390Z,98071.20
2023-08-31T03:01:15.615Z,98067.20
2023-08-31T03:03:44.848Z,98071.00
2023-08-31T03:06:11.264Z,98065.40
2023-08-31T03:08:38.987Z,98067.00
2023-08-31T03:11:06.913Z,98064.20
2023-08-31T03:13:34.635Z,98068.40
2023-08-31T03:16:02.006Z,98066.00
2023-08-31T03:18:29.033Z,98062.40
2023-08-31T03:20:56.428Z,98064.60
2023-08-31T03:23:22.955Z,98065.80
2023-08-31T03:25:49.505Z,98070.00
2023-08-31T03:28:15.971Z,98077.20
2023-08-31T03:30:42.527Z,98078.80
2023-08-31T03:33:09.796Z,98076.40
2023-08-31T03:35:36.451Z,98081.20
2023-08-31T03:38:03.018Z,98080.20
2023-08-31T03:40:29.521Z,98080.80
2023-08-31T03:42:56.065Z,98077.40
2023-08-31T03:45:24.887Z,98078.40
2023-08-31T03:47:51.272Z,98076.80
2023-08-31T03:50:17.762Z,98082.80
2023-08-31T03:52:44.213Z,98085.80
2023-08-31T03:55:11.208Z,98089.00
2023-08-31T03:57:37.629Z,98088.60
2023-08-31T04:00:09.766Z,98094.20
2023-08-31T04:02:36.904Z,98095.80
2023-08-31T04:05:06.331Z,98097.00
2023-08-31T04:07:36.367Z,98108.80
2023-08-31T04:10:04.947Z,98112.20
2023-08-31T04:12:31.705Z,98113.40
2023-08-31T04:14:58.134Z,98117.20
2023-08-31T04:17:24.572Z,98109.40
2023-08-31T04:19:51.671Z,98117.40
2023-08-31T04:22:18.184Z,98118.00
2023-08-31T04:24:44.700Z,98121.40
2023-08-31T04:27:11.222Z,98123.20
2023-08-31T04:29:38.397Z,98128.60
2023-08-31T04:32:05.385Z,98127.40
2023-08-31T04:34:31.900Z,98135.40
2023-08-31T04:36:58.457Z,98137.60
2023-08-31T04:39:24.875Z,98136.00
2023-08-31T04:41:51.311Z,98138.20
2023-08-31T04:44:18.256Z,98137.60
2023-08-31T04:46:44.662Z,98140.60
2023-08-31T04:49:11.176Z,98139.00
2023-08-31T04:51:42.777Z,98139.40
2023-08-31T04:54:09.262Z,98135.80
2023-08-31T04:56:36.444Z,98141.20
2023-08-31T04:59:04.085Z,98141.00
2023-08-31T05:01:31.119Z,98142.20
2023-08-31T05:03:57.678Z,98140.80
2023-08-31T05:06:24.159Z,98140.20
2023-08-31T05:08:50.973Z,98138.80
2023-08-31T05:11:17.484Z,98140.20
2023-08-31T05:13:44.019Z,98145.60
2023-08-31T05:16:10.821Z,98148.20
2023-08-31T05:18:39.178Z,98148.40
2023-08-31T05:21:05.636Z,98149.20
2023-08-31T05:23:32.194Z,98150.40
2023-08-31T05:25:59.731Z,98153.60
2023-08-31T05:28:26.156Z,98151.60
2023-08-31T05:30:56.297Z,98159.00
2023-08-31T05:33:28.473Z,98160.80
2023-08-31T05:35:55.670Z,98165.80
2023-08-31T05:38:22.603Z,98163.80
2023-08-31T05:40:49.040Z,98162.60
2023-08-31T05:43:16.737Z,98164.60
2023-08-31T05:45:43.578Z,98170.40
2023-08-31T05:48:10.172Z,98177.00
2023-08-31T05:50:39.940Z,98178.40
2023-08-31T05:53:06.673Z,98183.60
2023-08-31T05:55:33.907Z,98188.60
2023-08-31T06:00:26.743Z,98187.20
2023-08-31T06:02:53.211Z,98197.00
2023-08-31T06:05:20.344Z,98194.00
2023-08-31T06:07:46.815Z,98191.60
2023-08-31T06:10:14.726Z,98193.40
2023-08-31T06:12:41.209Z,98191.80
2023-08-31T06:15:08.209Z,98185.80
2023-08-31T06:17:36.235Z,98185.60
2023-08-31T06:20:03.174Z,98187.40
2023-08-31T06:22:29.637Z,98185.20
2023-08-31T06:24:56.239Z,98183.00
2023-08-31T06:27:22.655Z,98184.20
2023-08-31T06:29:49.168Z,98187.40
2023-08-31T06:32:15.751Z,98192.00
2023-08-31T06:34:42.312Z,98193.20
2023-08-31T06:37:08.755Z,98196.80
2023-08-31T06:39:35.424Z,98192.00
2023-08-31T06:42:01.938Z,98190.80
2023-08-31T06:44:30.463Z,98193.80
2023-08-31T06:46:57.046Z,98193.00
2023-08-31T06:49:24.660Z,98194.80
2023-08-31T06:51:51.469Z,98190.60
2023-08-31T06:54:17.885Z,98181.00
2023-08-31T06:56:44.349Z,98185.40
2023-08-31T06:59:10.856Z,98189.00
2023-08-31T07:01:37.837Z,98186.80
2023-08-31T07:04:05.597Z,98185.40
2023-08-31T07:06:36.091Z,98183.20
2023-08-31T07:09:02.657Z,98185.40
2023-08-31T07:11:29.075Z,98183.60
2023-08-31T07:13:56.010Z,98184.20
2023-08-31T07:16:22.719Z,98186.60
2023-08-31T07:18:49.178Z,98188.20
2023-08-31T07:21:15.640Z,98191.40
2023-08-31T07:23:42.266Z,98192.00
2023-08-31T07:26:08.763Z,98189.80
2023-08-31T07:28:36.030Z,98187.80
2023-08-31T07:31:07.497Z,98191.20
2023-08-31T07:33:38.611Z,98191.80
2023-08-31T07:36:07.258Z,98197.80
2023-08-31T07:38:34.608Z,98200.60
2023-08-31T07:43:27.804Z,98202.20
2023-08-31T07:45:54.886Z,98204.80
2023-08-31T07:48:21.506Z,98208.80
2023-08-31T07:50:47.929Z,98211.80
2023-08-31T07:53:14.723Z,98216.00
2023-08-31T07:55:41.948Z,98215.80
2023-08-31T07:58:08.478Z,98218.00
2023-08-31T08:00:35.040Z,98215.40
2023-08-31T08:05:28.539Z,98227.60
2023-08-31T08:07:54.992Z,98231.00
2023-08-31T08:10:21.614Z,98235.80
2023-08-31T08:12:48.075Z,98234.60
2023-08-31T08:15:15.271Z,98239.00
2023-08-31T08:17:41.733Z,98236.60
2023-08-31T08:20:09.049Z,98238.40
2023-08-31T08:22:37.117Z,98240.80
2023-08-31T08:25:04.356Z,98243.80
2023-08-31T08:27:31.178Z,98243.80
2023-08-31T08:29:57.614Z,98238.20
2023-08-31T08:32:24.163Z,98239.00
2023-08-31T08:34:52.134Z,98237.60
2023-08-31T08:37:18.891Z,98234.40
2023-08-31T08:39:50.923Z,98239.80
2023-08-31T08:42:20.142Z,98242.00
2023-08-31T08:44:47.903Z,98241.40
2023-08-31T08:47:15.037Z,98247.60
2023-08-31T08:49:41.668Z,98247.40
2023-08-31T08:52:08.721Z,98246.00
2023-08-31T08:54:39.422Z,98245.80
2023-08-31T08:57:06.842Z,98246.20
2023-08-31T08:59:33.720Z,98243.20
2023-08-31T09:02:00.311Z,98247.80
2023-08-31T09:04:26.803Z,98252.40
2023-08-31T09:06:53.402Z,98254.40
2023-08-31T09:09:20.348Z,98258.20
2023-08-31T09:11:47.041Z,98254.00
2023-08-31T09:14:18.174Z,98257.00
2023-08-31T09:16:50.817Z,98245.20
2023-08-31T09:19:25.376Z,98242.80
2023-08-31T09:21:53.508Z,98252.00
2023-08-31T09:24:20.006Z,98249.20
2023-08-31T09:26:49.730Z,98255.00
2023-08-31T09:29:16.826Z,98257.00
2023-08-31T09:31:45.584Z,98255.40
2023-08-31T09:34:12.573Z,98257.00
2023-08-31T09:36:39.957Z,98257.80
2023-08-31T09:39:07.463Z,98259.40
2023-08-31T09:41:36.825Z,98261.80
2023-08-31T09:44:22.074Z,98260.00
2023-08-31T09:46:48.728Z,98261.20
2023-08-31T09:49:17.844Z,98266.60
2023-08-31T09:51:50.494Z,98276.20
2023-08-31T09:54:20.325Z,98269.00
2023-08-31T09:56:48.910Z,98276.80
2023-08-31T09:59:17.879Z,98279.40
2023-08-31T10:01:47.773Z,98283.40
2023-08-31T10:04:14.998Z,98283.40
2023-08-31T10:06:43.143Z,98282.60
2023-08-31T10:09:10.819Z,98282.00
2023-08-31T10:11:39.282Z,98278.20
2023-08-31T10:14:06.448Z,98275.80
2023-08-31T10:16:33.301Z,98275.00
2023-08-31T10:19:00.153Z,98279.40
2023-08-31T10:21:27.083Z,98283.80
2023-08-31T10:23:53.711Z,98282.80
2023-08-31T10:26:31.979Z,98276.60
2023-08-31T10:29:00.634Z,98273.20
2023-08-31T10:31:32.533Z,98278.40
2023-08-31T10:34:03.234Z,98277.40
2023-08-31T10:36:49.634Z,98279.00
2023-08-31T10:39:22.845Z,98275.40
2023-08-31T10:41:57.936Z,98267.00
2023-08-31T10:44:31.821Z,98269.80
2023-08-31T10:47:04.038Z,98271.80
2023-08-31T10:49:30.498Z,98267.20
2023-08-31T10:52:03.384Z,98266.80
2023-08-31T10:54:38.569Z,98263.40
2023-08-31T10:57:10.296Z,98264.80
2023-08-31T10:59:55.989Z,98264.60
2023-08-31T11:02:43.826Z,98263.00
2023-08-31T11:05:23.266Z,98258.40
2023-08-31T11:07:54.220Z,98258.00
2023-08-31T11:10:28.631Z,98254.60
2023-08-31T11:12:58.386Z,98255.60
2023-08-31T11:15:30.896Z,98260.80
2023-08-31T11:17:57.563Z,98260.40
2023-08-31T11:20:29.375Z,98259.20
2023-08-31T11:22:56.727Z,98260.80
2023-08-31T11:25:26.853Z,98260.00
2023-08-31T11:30:32.548Z,98259.20
2023-08-31T11:33:03.844Z,98252.60
2023-08-31T11:35:38.522Z,98252.80
2023-08-31T11:38:05.683Z,98252.00
2023-08-31T11:40:32.635Z,98258.40
2023-08-31T11:45:29.778Z,98266.20
2023-08-31T11:47:57.719Z,98278.40
2023-08-31T11:50:25.535Z,98281.60
2023-08-31T11:52:54.359Z,98289.40
2023-08-31T11:55:21.956Z,98297.20
2023-08-31T11:57:51.912Z,98288.00
2023-08-31T12:00:21.271Z,98275.00
2023-08-31T12:03:00.692Z,98268.20
2023-08-31T12:05:28.557Z,98276.20
2023-08-31T12:07:56.866Z,98280.20
2023-08-31T12:10:26.067Z,98285.60
2023-08-31T12:12:54.237Z,98287.40
2023-08-31T12:15:22.546Z,98286.00
2023-08-31T12:17:55.088Z,98281.80
2023-08-31T12:20:29.911Z,98286.00
2023-08-31T12:22:56.352Z,98282.60
2023-08-31T12:25:23.969Z,98281.80
2023-08-31T12:27:51.163Z,98288.00
2023-08-31T12:30:17.882Z,98288.40
2023-08-31T12:32:44.504Z,98280.80
2023-08-31T12:35:12.650Z,98280.00
2023-08-31T12:37:39.653Z,98276.20
2023-08-31T12:40:08.266Z,98269.40
2023-08-31T12:42:34.926Z,98294.40
2023-08-31T12:45:01.422Z,98335.00
2023-08-31T12:47:28.044Z,98382.00
2023-08-31T12:49:54.638Z,98407.80
2023-08-31T12:52:21.394Z,98419.80
2023-08-31T12:54:48.366Z,98404.00
2023-08-31T12:57:15.486Z,98373.20
2023-08-31T12:59:43.187Z,98371.20
2023-08-31T13:02:11.908Z,98376.60
2023-08-31T13:04:40.708Z,98379.80
2023-08-31T13:07:07.623Z,98383.00
2023-08-31T13:09:34.057Z,98379.00
2023-08-31T13:12:00.460Z,98393.00
2023-08-31T13:14:26.992Z,98398.00
2023-08-31T13:16:53.475Z,98397.80
2023-08-31T13:19:20.542Z,98387.80
2023-08-31T13:21:46.986Z,98389.80
2023-08-31T13:24:13.422Z,98389.80
2023-08-31T13:26:39.820Z,98394.40
2023-08-31T13:29:06.212Z,98393.00
2023-08-31T13:31:32.952Z,98397.80
2023-08-31T13:33:59.329Z,98408.20
2023-08-31T13:36:25.860Z,98413.80
2023-08-31T13:38:52.419Z,98418.40
2023-08-31T13:41:18.831Z,98417.60
2023-08-31T13:43:45.342Z,98420.80
2023-08-31T13:46:13.245Z,98415.40
2023-08-31T13:48:39.687Z,98420.40
2023-08-31T13:51:06.114Z,98418.60
2023-08-31T13:53:32.727Z,98413.40
2023-08-31T13:55:59.138Z,98423.00
2023-08-31T13:58:25.603Z,98425.40
2023-08-31T14:00:52.030Z,98422.40
2023-08-31T14:03:18.631Z,98420.20
2023-08-31T14:05:49.994Z,98413.60
2023-08-31T14:08:17.159Z,98418.80
2023-08-31T14:10:43.665Z,98413.80
2023-08-31T14:13:10.207Z,98412.40
2023-08-31T14:15:37.609Z,98395.20
2023-08-31T14:18:05.055Z,98397.40
2023-08-31T14:20:31.561Z,98400.20
2023-08-31T14:22:58.817Z,98397.00
2023-08-31T14:25:26.700Z,98402.40
2023-08-31T14:27:53.208Z,98398.40
2023-08-31T14:30:19.880Z,98407.40
2023-08-31T14:32:46.331Z,98410.80
2023-08-31T14:35:12.807Z,98415.40
2023-08-31T14:37:39.301Z,98410.80
2023-08-31T14:40:08.365Z,98412.60
2023-08-31T14:42:35.178Z,98408.20
2023-08-31T14:47:28.644Z,98405.40
2023-08-31T14:49:56.627Z,98407.40
2023-08-31T14:52:23.512Z,98406.60
2023-08-31T14:54:50.253Z,98405.20
2023-08-31T14:57:16.817Z,98411.20
2023-08-31T14:59:43.325Z,98422.00
2023-08-31T15:02:09.793Z,98424.00
2023-08-31T15:04:36.310Z,98428.40
2023-08-31T15:09:28.370Z,98433.80
2023-08-31T15:11:54.894Z,98432.00
2023-08-31T15:14:21.384Z,98440.20
2023-08-31T15:16:47.818Z,98436.20
2023-08-31T15:19:14.317Z,98445.80
2023-08-31T15:21:40.872Z,98452.00
2023-08-31T15:24:07.768Z,98456.60
2023-08-31T15:26:34.520Z,98453.20
2023-08-31T15:29:00.964Z,98451.40
2023-08-31T15:31:27.844Z,98464.20
2023-08-31T15:33:54.473Z,98470.20
2023-08-31T15:36:20.935Z,98475.40
2023-08-31T15:38:47.355Z,98479.20
2023-08-31T15:41:16.080Z,98491.20
2023-08-31T15:43:43.633Z,98488.80
2023-08-31T15:46:10.818Z,98498.80
2023-08-31T15:48:38.121Z,98504.40
2023-08-31T15:51:05.082Z,98505.40
2023-08-31T15:53:32.413Z,98508.00
2023-08-31T15:55:59.031Z,98509.40
2023-08-31T15:58:27.773Z,98506.20
2023-08-31T16:01:02.042Z,98510.80
2023-08-31T16:03:31.352Z,98511.80
2023-08-31T16:06:01.403Z,98511.60
2023-08-31T16:08:29.145Z,98512.00
2023-08-31T16:10:56.145Z,98507.40
2023-08-31T16:13:22.987Z,98509.80
2023-08-31T16:15:51.068Z,98507.20
2023-08-31T16:18:18.175Z,98511.40
2023-08-31T16:20:45.202Z,98511.40
2023-08-31T16:23:12.250Z,98506.00
2023-08-31T16:25:38.774Z,98509.20
2023-08-31T16:28:05.633Z,98513.20
2023-08-31T16:30:32.522Z,98509.20
2023-08-31T16:32:59.227Z,98506.40
2023-08-31T16:35:25.708Z,98505.80
2023-08-31T16:37:52.128Z,98505.80
2023-08-31T16:40:18.705Z,98508.40
2023-08-31T16:42:45.157Z,98506.40
2023-08-31T16:45:12.054Z,98504.60
2023-08-31T16:47:38.923Z,98508.40
2023-08-31T16:50:06.117Z,98504.00
2023-08-31T16:52:33.521Z,98506.40
2023-08-31T16:55:00.674Z,98504.40
2023-08-31T16:57:27.343Z,98505.00
2023-08-31T16:59:54.184Z,98507.20
2023-08-31T17:02:20.722Z,98511.40
2023-08-31T17:04:47.916Z,98510.20
2023-08-31T17:07:14.439Z,98515.40
2023-08-31T17:09:40.958Z,98517.80
2023-08-31T17:12:08.087Z,98517.60
2023-08-31T17:14:34.470Z,98524.80
2023-08-31T17:19:29.246Z,98532.00
2023-08-31T17:21:55.780Z,98537.80
2023-08-31T17:24:22.266Z,98539.60
2023-08-31T17:26:48.868Z,98540.40
2023-08-31T17:29:15.380Z,98541.60
2023-08-31T17:31:43.282Z,98550.00
2023-08-31T17:34:13.133Z,98551.00
2023-08-31T17:36:39.811Z,98549.00
2023-08-31T17:39:06.309Z,98551.60
2023-08-31T17:41:32.803Z,98556.00
2023-08-31T17:43:59.204Z,98558.60
2023-08-31T17:46:25.864Z,98558.00
2023-08-31T17:48:52.549Z,98560.40
2023-08-31T17:51:19.115Z,98560.60
2023-08-31T17:53:46.170Z,98562.60
2023-08-31T17:56:12.616Z,98565.60
2023-08-31T17:58:39.134Z,98564.20
2023-08-31T18:01:06.135Z,98569.80
2023-08-31T18:03:33.116Z,98566.80
2023-08-31T18:05:59.838Z,98573.20
2023-08-31T18:08:28.088Z,98572.80
2023-08-31T18:10:55.616Z,98570.80
2023-08-31T18:13:22.256Z,98573.80
2023-08-31T18:15:52.886Z,98572.60
2023-08-31T18:18:20.561Z,98580.40
2023-08-31T18:20:47.455Z,98583.20
2023-08-31T18:23:15.720Z,98582.80
2023-08-31T18:25:48.343Z,98587.00
2023-08-31T18:28:15.050Z,98594.20
2023-08-31T18:30:42.173Z,98590.00
2023-08-31T18:33:08.753Z,98597.40
2023-08-31T18:35:35.235Z,98596.00
2023-08-31T18:38:01.698Z,98600.20
2023-08-31T18:40:28.064Z,98599.60
2023-08-31T18:42:54.549Z,98605.00
2023-08-31T18:45:21.019Z,98604.00
2023-08-31T18:47:47.569Z,98604.60
2023-08-31T18:50:21.283Z,98601.20
2023-08-31T18:52:49.788Z,98602.00
2023-08-31T18:55:16.953Z,98602.60
2023-08-31T18:57:47.002Z,98605.40
2023-08-31T19:00:15.276Z,98606.80
2023-08-31T19:02:44.059Z,98609.00
2023-08-31T19:05:12.101Z,98613.20
2023-08-31T19:07:39.149Z,98613.60
2023-08-31T19:10:09.026Z,98612.40
2023-08-31T19:12:36.813Z,98607.80
2023-08-31T19:15:04.785Z,98609.20
2023-08-31T19:17:31.323Z,98607.60
2023-08-31T19:19:57.818Z,98615.80
2023-08-31T19:22:24.602Z,98616.00
2023-08-31T19:24:52.558Z,98619.00
2023-08-31T19:27:19.943Z,98617.40
2023-08-31T19:29:46.568Z,98625.40
2023-08-31T19:32:13.808Z,98623.40
2023-08-31T19:34:40.453Z,98622.60
2023-08-31T19:37:06.871Z,98628.00
2023-08-31T19:39:33.338Z,98627.00
2023-08-31T19:42:00.316Z,98633.40
2023-08-31T19:44:26.938Z,98641.20
2023-08-31T19:46:56.124Z,98641.40
2023-08-31T19:49:25.613Z,98648.80
2023-08-31T19:51:52.276Z,98651.00
2023-08-31T19:54:18.805Z,98650.00
2023-08-31T19:56:45.322Z,98661.20
2023-08-31T19:59:11.982Z,98656.00
2023-08-31T20:01:40.493Z,98655.40
2023-08-31T20:04:07.133Z,98657.60
2023-08-31T20:06:33.778Z,98656.80
2023-08-31T20:09:00.559Z,98652.60
2023-08-31T20:11:27.032Z,98646.60
2023-08-31T20:13:57.036Z,98646.80
2023-08-31T20:16:23.863Z,98640.60
2023-08-31T20:18:50.585Z,98634.40
2023-08-31T20:21:17.370Z,98639.60
2023-08-31T20:23:44.115Z,98642.20
2023-08-31T20:26:10.958Z,98645.20
2023-08-31T20:28:37.468Z,98645.20
2023-08-31T20:31:04.930Z,98643.60
2023-08-31T20:33:31.533Z,98639.60
2023-08-31T20:36:05.880Z,98636.40
2023-08-31T20:38:32.428Z,98640.00
2023-08-31T20:40:58.880Z,98637.20
2023-08-31T20:43:25.280Z,98644.00
2023-08-31T20:45:52.652Z,98642.20
2023-08-31T20:48:19.374Z,98638.00
2023-08-31T20:50:46.055Z,98636.60
2023-08-31T20:53:12.408Z,98637.80
2023-08-31T20:55:38.978Z,98644.40
2023-08-31T20:58:05.534Z,98644.80
2023-08-31T21:00:31.958Z,98649.60
2023-08-31T21:02:58.468Z,98650.20
2023-08-31T21:05:24.907Z,98652.40
2023-08-31T21:07:51.418Z,98653.80
2023-08-31T21:10:17.903Z,98653.80
2023-08-31T21:12:44.323Z,98655.60
2023-08-31T21:15:11.031Z,98659.40
2023-08-31T21:17:38.765Z,98659.20
2023-08-31T21:20:07.398Z,98659.80
2023-08-31T21:22:33.912Z,98668.80
2023-08-31T21:25:00.428Z,98673.60
2023-08-31T21:27:26.958Z,98671.00
2023-08-31T21:29:53.417Z,98672.80
2023-08-31T21:32:19.847Z,98670.40
2023-08-31T21:34:46.263Z,98670.60
2023-08-31T21:37:12.719Z,98670.00
2023-08-31T21:39:39.254Z,98676.60
2023-08-31T21:42:05.762Z,98674.20
2023-08-31T21:44:32.220Z,98676.00
2023-08-31T21:46:58.651Z,98683.80
2023-08-31T21:49:25.102Z,98683.60
2023-08-31T21:51:51.516Z,98685.40
2023-08-31T21:54:17.953Z,98687.40
2023-08-31T21:56:44.376Z,98687.20
2023-08-31T21:59:12.124Z,98685.20
2023-08-31T22:01:39.556Z,98691.20
2023-08-31T22:04:06.574Z,98695.20
2023-08-31T22:06:33.061Z,98702.20
2023-08-31T22:08:59.592Z,98700.40
2023-08-31T22:11:26.046Z,98706.60
2023-08-31T22:13:52.556Z,98708.40
2023-08-31T22:16:29.308Z,98709.80
2023-08-31T22:18:56.870Z,98707.60
2023-08-31T22:21:23.338Z,98709.00
2023-08-31T22:23:49.755Z,98716.20
2023-08-31T22:26:16.245Z,98714.80
2023-08-31T22:28:42.680Z,98716.40
2023-08-31T22:31:09.122Z,98720.20
2023-08-31T22:33:35.649Z,98717.00
2023-08-31T22:36:05.415Z,98714.80
2023-08-31T22:38:32.010Z,98709.20
2023-08-31T22:40:58.464Z,98707.60
2023-08-31T22:43:24.907Z,98709.00
2023-08-31T22:45:58.816Z,98713.40
2023-08-31T22:48:25.440Z,98711.00
2023-08-31T22:53:29.718Z,98723.20
2023-08-31T22:55:56.527Z,98724.40
2023-08-31T22:58:22.938Z,98722.20
2023-08-31T23:00:52.322Z,98718.80
2023-08-31T23:03:20.901Z,98726.20
2023-08-31T23:05:47.721Z,98721.20
2023-08-31T23:08:15.037Z,98722.80
2023-08-31T23:10:41.836Z,98724.00
2023-08-31T23:13:08.251Z,98727.80
2023-08-31T23:15:38.235Z,98731.60
2023-08-31T23:18:05.439Z,98727.60
2023-08-31T23:20:31.921Z,98730.40
2023-08-31T23:22:58.396Z,98736.40
2023-08-31T23:25:25.030Z,98729.80
2023-08-31T23:27:51.543Z,98731.00
2023-08-31T23:30:18.260Z,98734.20
2023-08-31T23:32:44.842Z,98738.60
2023-08-31T23:35:11.630Z,98741.20
2023-08-31T23:37:38.118Z,98743.60
2023-08-31T23:40:10.856Z,98740.00
2023-08-31T23:42:37.479Z,98740.00
2023-08-31T23:45:05.571Z,98739.00
2023-08-31T23:47:32.032Z,98739.00
2023-08-31T23:49:58.508Z,98737.60
2023-08-31T23:52:25.544Z,98737.80
2023-08-31T23:54:52.025Z,98739.00
2023-08-31T23:57:18.421Z,98737.60
2023-08-31T23:59:44.974Z,98733.40
